Time;durP1;ratioP1;P1;durP2;ratioP2;P2;SDS_P1;SDS_P2;PMS_P1;PMS_P2;Temp;Humidity;BMP_temperature;BMP_pressure;BME280_temperature;BME280_humidity;BME280_pressure;Samples;Min_cycle;Max_cycle;Signal;HPM_P1;HPM_P2
2022/07/01 00:01:29;;;;;;;0.50;0.30;;;;;;;14.57;100.00;101515.59;10450188;28;20076;-77
2022/07/01 00:06:31;;;;;;;2.38;0.40;;;;;;;14.56;100.00;101511.25;10435635;28;20037;-76
2022/07/01 00:11:33;;;;;;;3.08;1.02;;;;;;;14.70;100.00;101514.16;10454950;28;20033;-77
2022/07/01 00:16:36;;;;;;;2.55;0.52;;;;;;;14.71;100.00;101490.81;10452315;28;20077;-77
2022/07/01 00:21:37;;;;;;;0.22;0.22;;;;;;;14.72;100.00;101464.03;10457031;28;20037;-76
2022/07/01 00:26:39;;;;;;;2.55;0.85;;;;;;;14.71;100.00;101461.41;10452164;28;20041;-76
2022/07/01 00:31:44;;;;;;;0.77;0.60;;;;;;;14.72;100.00;101458.84;10455718;28;20037;-76
2022/07/01 00:36:50;;;;;;;0.80;0.52;;;;;;;14.79;100.00;101470.19;10419349;28;20056;-77
2022/07/01 00:41:51;;;;;;;0.85;0.55;;;;;;;14.65;100.00;101471.63;10455145;28;20041;-76
2022/07/01 00:47:00;;;;;;;5.88;1.23;;;;;;;14.72;100.00;101457.97;10442321;28;20041;-77
2022/07/01 00:52:07;;;;;;;1.30;0.88;;;;;;;14.71;100.00;101466.59;10433354;28;20079;-77
2022/07/01 00:57:10;;;;;;;1.30;0.73;;;;;;;14.56;100.00;101475.81;10452982;28;20045;-77
2022/07/01 01:02:12;;;;;;;1.00;0.90;;;;;;;14.43;100.00;101481.59;10454660;28;20545;-76
2022/07/01 01:07:14;;;;;;;1.60;1.05;;;;;;;14.37;100.00;101482.34;10430244;28;20052;-77
2022/07/01 01:12:16;;;;;;;1.20;0.82;;;;;;;14.33;100.00;101490.06;10456204;28;20049;-77
2022/07/01 01:17:19;;;;;;;1.92;1.40;;;;;;;14.22;100.00;101482.94;10436116;28;20045;-77
2022/07/01 01:22:20;;;;;;;3.22;1.58;;;;;;;14.31;100.00;101497.78;10437519;28;20052;-77
2022/07/01 01:27:24;;;;;;;1.63;1.25;;;;;;;14.31;100.00;101507.31;10447320;28;20076;-77
2022/07/01 01:32:26;;;;;;;1.33;0.93;;;;;;;14.32;100.00;101516.81;10443033;28;20133;-77
2022/07/01 01:37:29;;;;;;;1.60;1.27;;;;;;;14.36;100.00;101526.41;10439038;28;20052;-77
2022/07/01 01:42:32;;;;;;;2.03;1.38;;;;;;;14.35;100.00;101558.34;10424600;28;20049;-77
2022/07/01 01:47:34;;;;;;;2.08;1.10;;;;;;;14.38;100.00;101545.47;10425139;28;20083;-77
2022/07/01 01:52:37;;;;;;;1.13;0.90;;;;;;;14.41;100.00;101535.13;10456319;28;20044;-77
2022/07/01 01:57:54;;;;;;;1.55;1.13;;;;;;;14.36;100.00;101548.03;10438866;28;20132;-77
2022/07/01 02:03:01;;;;;;;7.28;1.70;;;;;;;14.22;100.00;101539.94;10456885;28;20049;-77
2022/07/01 02:08:04;;;;;;;2.80;1.50;;;;;;;14.12;100.00;101549.25;10456119;28;20041;-77
2022/07/01 02:13:06;;;;;;;3.00;1.58;;;;;;;14.21;100.00;101558.94;10457789;28;20045;-77
2022/07/01 02:18:08;;;;;;;5.13;1.65;;;;;;;14.14;100.00;101567.41;10421893;28;20033;-76
2022/07/01 02:23:09;;;;;;;3.03;1.77;;;;;;;14.27;100.00;101559.06;10438340;28;20107;-76
2022/07/01 02:28:12;;;;;;;1.33;1.15;;;;;;;14.21;100.00;101545.97;10455685;28;20037;-76
2022/07/01 02:33:13;;;;;;;5.93;1.98;;;;;;;14.23;100.00;101549.47;10440674;28;20056;-78
2022/07/01 02:38:15;;;;;;;3.50;1.90;;;;;;;14.22;100.00;101555.50;10455724;28;20091;-76
2022/07/01 02:43:18;;;;;;;5.55;2.25;;;;;;;14.27;100.00;101559.06;10437773;28;20041;-77
2022/07/01 02:48:20;;;;;;;4.88;3.38;;;;;;;14.19;100.00;101565.78;10455910;28;20045;-76
2022/07/01 02:53:21;;;;;;;4.70;1.95;;;;;;;14.11;100.00;101562.19;10457221;28;20451;-76
2022/07/01 02:58:25;;;;;;;3.22;2.03;;;;;;;14.08;100.00;101555.19;10441004;28;20100;-77
2022/07/01 03:03:29;;;;;;;3.45;2.10;;;;;;;13.93;100.00;101572.97;10406269;28;20053;-76
2022/07/01 03:08:31;;;;;;;3.78;2.05;;;;;;;13.96;100.00;101573.94;10412733;28;20045;-76
2022/07/01 03:13:32;;;;;;;3.47;2.55;;;;;;;13.62;100.00;101590.41;10463440;28;20114;-76
2022/07/01 03:18:34;;;;;;;3.90;2.05;;;;;;;13.71;100.00;101602.69;10445371;28;20554;-76
2022/07/01 03:23:36;;;;;;;4.57;1.60;;;;;;;13.67;100.00;101600.84;10462926;28;20489;-76
2022/07/01 03:28:37;;;;;;;3.80;1.92;;;;;;;13.57;100.00;101604.94;10462843;28;20037;-76
2022/07/01 03:33:39;;;;;;;2.40;1.63;;;;;;;13.61;100.00;101612.81;10444938;28;20049;-76
2022/07/01 03:38:42;;;;;;;4.00;1.63;;;;;;;13.51;100.00;101616.03;10444095;28;20044;-76
2022/07/01 03:43:43;;;;;;;6.72;3.25;;;;;;;13.53;100.00;101639.38;10462176;28;20100;-76
2022/07/01 03:48:45;;;;;;;14.38;3.03;;;;;;;13.47;100.00;101637.50;10461823;28;20052;-77
2022/07/01 03:59:16;;;;;;;;;;;;;;;13.52;100.00;101655.75;10461721;28;20041;-76
2022/07/01 04:04:18;;;;;;;3.88;1.75;;;;;;;13.51;100.00;101667.81;10443356;28;19985;-76
2022/07/01 04:09:57;;;;;;;2.35;1.95;;;;;;;13.43;100.00;101648.63;10442269;28;20045;-77
2022/07/01 04:14:59;;;;;;;5.72;1.83;;;;;;;13.51;100.00;101631.56;10460808;28;20099;-77
2022/07/01 04:20:00;;;;;;;3.03;2.08;;;;;;;13.31;100.00;101634.47;10460494;28;20049;-77
2022/07/01 04:25:04;;;;;;;2.30;1.40;;;;;;;13.26;100.00;101641.25;10460498;28;20091;-77
2022/07/01 04:30:06;;;;;;;2.15;1.15;;;;;;;13.29;100.00;101643.91;10401321;28;20042;-76
2022/07/01 04:35:11;;;;;;;3.67;2.58;;;;;;;13.25;100.00;101665.38;10385037;28;20119;-77
2022/07/01 04:40:13;;;;;;;4.68;2.22;;;;;;;13.35;100.00;101669.06;10435708;28;20041;-76
2022/07/01 04:45:15;;;;;;;4.72;2.28;;;;;;;13.55;100.00;101664.47;10441884;28;20061;-76
2022/07/01 04:50:16;;;;;;;4.43;2.38;;;;;;;13.43;100.00;101653.78;10441257;28;20040;-76
2022/07/01 04:55:18;;;;;;;2.70;2.40;;;;;;;13.53;100.00;101660.09;10427079;28;20053;-77
2022/07/01 05:00:20;;;;;;;2.05;1.48;;;;;;;13.57;100.00;101673.16;10457609;28;20041;-76
2022/07/01 05:05:22;;;;;;;3.55;1.77;;;;;;;13.80;100.00;101671.13;10458525;28;20492;-76
2022/07/01 05:10:24;;;;;;;2.55;1.83;;;;;;;13.66;100.00;101651.78;10458039;28;20041;-76
2022/07/01 05:15:25;;;;;;;1.98;1.58;;;;;;;13.73;100.00;101643.34;10458298;28;20045;-77
2022/07/01 05:25:50;;;;;;;3.80;1.05;;;;;;;13.72;100.00;101656.25;10416899;28;20053;-78
2022/07/01 05:30:52;;;;;;;2.15;1.40;;;;;;;13.71;100.00;101663.13;10420751;28;20500;-78
2022/07/01 05:35:54;;;;;;;2.00;1.50;;;;;;;13.87;100.00;101660.91;10431074;28;20072;-78
2022/07/01 05:40:56;;;;;;;1.10;0.95;;;;;;;13.92;100.00;101667.09;10443998;28;20049;-78
2022/07/01 05:45:57;;;;;;;3.53;1.52;;;;;;;13.99;100.00;101670.69;10451984;28;20041;-78
2022/07/01 05:50:59;;;;;;;3.95;1.30;;;;;;;13.90;100.00;101661.88;10412059;28;20053;-77
2022/07/01 05:56:02;;;;;;;1.40;1.10;;;;;;;13.92;100.00;101655.03;10450977;28;20053;-77
2022/07/01 06:01:04;;;;;;;2.40;1.27;;;;;;;13.95;100.00;101652.50;10435126;28;20443;-78
2022/07/01 06:06:09;;;;;;;4.03;2.30;;;;;;;14.03;100.00;101631.09;10433643;28;20934;-78
2022/07/01 06:11:11;;;;;;;2.50;1.13;;;;;;;14.11;100.00;101634.75;10433623;28;20466;-78
2022/07/01 06:16:13;;;;;;;4.95;1.60;;;;;;;14.13;100.00;101633.03;10439433;28;20841;-77
2022/07/01 06:21:15;;;;;;;4.50;2.35;;;;;;;14.11;100.00;101634.75;10437152;28;20061;-77
2022/07/01 06:26:17;;;;;;;2.58;1.42;;;;;;;13.92;100.00;101660.19;10433558;28;20045;-78
2022/07/01 06:31:19;;;;;;;5.53;1.58;;;;;;;13.92;100.00;101670.56;10425495;28;20570;-78
2022/07/01 06:36:20;;;;;;;2.08;1.73;;;;;;;14.08;100.00;101683.88;10415862;28;20037;-78
2022/07/01 06:41:28;;;;;;;0.85;0.82;;;;;;;14.35;100.00;101673.28;10435438;28;20049;-78
2022/07/01 06:46:31;;;;;;;1.77;0.90;;;;;;;14.55;100.00;101668.56;10427847;28;20055;-77
2022/07/01 06:51:33;;;;;;;2.15;1.33;;;;;;;14.77;100.00;101669.03;10427781;28;20049;-78
2022/07/01 06:56:35;;;;;;;1.38;1.27;;;;;;;14.69;100.00;101668.88;10459474;28;20045;-79
2022/07/01 07:01:37;;;;;;;2.08;1.33;;;;;;;14.72;100.00;101661.16;10436472;28;20444;-78
2022/07/01 07:06:41;;;;;;;1.65;1.08;;;;;;;15.09;100.00;101666.19;10454113;28;20049;-78
2022/07/01 07:11:43;;;;;;;4.28;2.65;;;;;;;15.29;100.00;101673.50;10453383;28;20041;-78
2022/07/01 07:16:51;;;;;;;2.13;1.13;;;;;;;15.32;100.00;101689.13;10436647;28;20049;-78
2022/07/01 07:22:02;;;;;;;3.00;1.30;;;;;;;15.41;100.00;101678.06;10440426;28;20126;-78
2022/07/01 07:27:04;;;;;;;1.67;1.20;;;;;;;15.19;100.00;101688.03;10434496;28;20393;-78
2022/07/01 07:32:06;;;;;;;2.60;1.77;;;;;;;15.23;100.00;101695.03;10455503;28;20049;-78
2022/07/01 07:37:08;;;;;;;2.55;0.93;;;;;;;15.78;100.00;101692.56;10455139;28;20033;-77
2022/07/01 07:42:09;;;;;;;2.17;1.50;;;;;;;15.35;100.00;101710.81;10456955;28;20407;-77
2022/07/01 07:47:12;;;;;;;2.45;0.85;;;;;;;15.76;100.00;101712.44;10456896;28;20041;-77
2022/07/01 07:52:13;;;;;;;4.47;2.00;;;;;;;15.61;100.00;101706.97;10436149;28;20045;-79
2022/07/01 07:57:21;;;;;;;0.85;0.85;;;;;;;15.86;100.00;101704.00;10458893;28;20051;-78
2022/07/01 08:02:22;;;;;;;1.17;0.75;;;;;;;15.84;100.00;101695.28;10435839;28;20049;-78
2022/07/01 08:07:25;;;;;;;2.83;1.00;;;;;;;15.97;100.00;101685.09;10457426;28;20053;-79
2022/07/01 08:12:27;;;;;;;4.25;1.90;;;;;;;17.41;100.00;101656.59;10437273;28;20053;-78
2022/07/01 08:17:28;;;;;;;1.50;1.25;;;;;;;16.99;100.00;101681.34;10436339;28;20049;-78
2022/07/01 08:22:30;;;;;;;1.67;0.90;;;;;;;17.13;100.00;101692.78;10437276;28;20053;-78
2022/07/01 08:27:32;;;;;;;1.50;1.02;;;;;;;17.70;100.00;101696.81;10433933;28;20041;-78
2022/07/01 08:32:33;;;;;;;4.72;2.15;;;;;;;17.96;100.00;101704.91;10451121;28;20041;-78
2022/07/01 08:37:35;;;;;;;1.05;0.68;;;;;;;18.45;100.00;101713.91;10439150;28;20045;-77
2022/07/01 08:42:38;;;;;;;2.08;1.08;;;;;;;19.11;100.00;101695.09;10457124;28;20049;-79
2022/07/01 08:47:52;;;;;;;1.45;0.82;;;;;;;17.54;96.85;101711.41;10456075;28;20048;-77
2022/07/01 08:52:54;;;;;;;1.23;0.75;;;;;;;18.73;94.15;101714.09;10454119;28;20480;-78
2022/07/01 08:57:57;;;;;;;0.75;0.75;;;;;;;18.65;93.48;101722.72;10452002;28;20044;-78
2022/07/01 09:03:03;;;;;;;0.88;0.60;;;;;;;17.24;94.67;101739.78;10437607;28;20056;-78
2022/07/01 09:08:06;;;;;;;0.75;0.63;;;;;;;18.29;89.23;101729.47;10435501;28;20040;-78
2022/07/01 09:13:10;;;;;;;1.40;0.68;;;;;;;18.48;85.12;101724.38;10452243;28;20049;-77
2022/07/01 09:18:15;;;;;;;1.00;0.90;;;;;;;18.93;86.25;101724.63;10453143;28;20049;-78
2022/07/01 09:23:22;;;;;;;0.75;0.50;;;;;;;19.82;87.99;101726.59;10435098;28;20041;-78
2022/07/01 09:28:26;;;;;;;1.23;0.60;;;;;;;18.21;87.61;101736.34;10450606;28;20098;-77
2022/07/01 09:33:29;;;;;;;1.13;0.80;;;;;;;19.99;80.60;101723.16;10438565;28;20048;-78
2022/07/01 09:38:31;;;;;;;0.50;0.30;;;;;;;19.70;78.23;101721.34;10432638;28;20452;-77
2022/07/01 09:43:35;;;;;;;0.57;0.55;;;;;;;19.17;76.01;101729.09;10450661;28;20512;-78
2022/07/01 09:48:37;;;;;;;0.22;0.22;;;;;;;19.42;77.45;101731.75;10450903;28;20040;-78
2022/07/01 09:53:39;;;;;;;0.55;0.43;;;;;;;18.92;78.12;101736.84;10448514;28;20064;-79
2022/07/01 09:58:42;;;;;;;0.10;0.10;;;;;;;20.11;82.36;101733.59;10433911;28;20040;-79
2022/07/01 10:03:45;;;;;;;0.60;0.55;;;;;;;20.11;72.91;101734.47;10444776;28;20450;-79
2022/07/01 10:08:58;;;;;;;0.77;0.47;;;;;;;20.18;73.51;101734.50;10425436;28;20044;-79
2022/07/01 10:14:03;;;;;;;2.55;0.30;;;;;;;20.33;73.46;101733.59;10446196;28;20102;-78
2022/07/01 10:19:19;;;;;;;0.43;0.43;;;;;;;19.38;76.19;101725.66;10444203;28;20098;-79
2022/07/01 10:24:23;;;;;;;1.45;0.50;;;;;;;20.52;70.66;101737.91;10430346;28;20052;-79
2022/07/01 10:29:35;;;;;;;0.10;0.10;;;;;;;20.85;68.32;101733.47;10446937;28;20050;-79
2022/07/01 10:34:41;;;;;;;4.00;0.20;;;;;;;20.04;65.15;101737.09;10445626;28;20033;-79
2022/07/01 10:40:01;;;;;;;0.10;0.10;;;;;;;19.47;72.42;101737.91;10428590;28;20128;-79
2022/07/01 10:45:07;;;;;;;0.63;0.40;;;;;;;19.42;72.88;101737.88;10435867;28;20057;-78
2022/07/01 10:50:15;;;;;;;0.25;0.25;;;;;;;19.36;72.91;101742.19;10447594;28;20037;-78
2022/07/01 10:55:38;;;;;;;0.75;0.43;;;;;;;20.06;69.46;101736.22;10427505;28;20431;-79
2022/07/01 11:00:42;;;;;;;0.10;0.00;;;;;;;19.84;69.91;101743.22;10426871;28;20083;-79
2022/07/01 11:05:46;;;;;;;0.75;0.40;;;;;;;19.79;68.87;101737.03;10451936;28;20057;-80
2022/07/01 11:10:55;;;;;;;1.58;0.35;;;;;;;20.05;68.86;101746.69;10451049;28;20091;-77
2022/07/01 11:15:59;;;;;;;0.38;0.38;;;;;;;21.45;69.91;101715.69;10449035;28;20221;-78
2022/07/01 11:21:03;;;;;;;0.10;0.10;;;;;;;20.12;69.75;101741.44;10458571;28;20044;-78
2022/07/01 11:26:05;;;;;;;0.30;0.15;;;;;;;20.57;61.46;101733.53;10437301;28;20048;-78
2022/07/01 11:31:06;;;;;;;0.00;0.00;;;;;;;21.52;66.20;101726.16;10451897;28;20045;-79
2022/07/01 11:41:29;;;;;;;0.10;0.10;;;;;;;21.25;62.80;101732.41;10454903;28;20091;-78
2022/07/01 11:46:30;;;;;;;0.00;0.00;;;;;;;21.75;66.98;101706.78;10437909;28;20057;-78
2022/07/01 11:51:32;;;;;;;0.08;0.08;;;;;;;21.67;61.42;101708.59;10453455;28;20037;-78
2022/07/01 11:56:38;;;;;;;0.65;0.30;;;;;;;20.69;61.43;101719.56;10443562;28;20072;-78
2022/07/01 12:01:40;;;;;;;0.13;0.10;;;;;;;21.36;57.80;101719.25;10438221;28;20051;-78
2022/07/01 12:06:42;;;;;;;0.08;0.08;;;;;;;21.34;56.43;101721.00;10460693;28;20041;-79
2022/07/01 12:11:49;;;;;;;0.00;0.00;;;;;;;20.63;61.60;101721.31;10449400;28;20045;-77
2022/07/01 12:16:52;;;;;;;0.00;0.00;;;;;;;19.91;58.20;101720.53;10450850;28;20103;-77
2022/07/01 12:21:58;;;;;;;0.10;0.10;;;;;;;20.75;62.66;101716.03;10438003;28;20049;-78
2022/07/01 12:26:59;;;;;;;0.08;0.08;;;;;;;22.29;56.34;101708.06;10434251;28;20449;-78
2022/07/01 12:32:06;;;;;;;0.10;0.05;;;;;;;20.68;56.91;101725.66;10453296;28;20045;-78
2022/07/01 12:37:13;;;;;;;0.65;0.57;;;;;;;20.96;60.99;101720.34;10446913;28;20052;-79
2022/07/01 12:42:30;;;;;;;0.57;0.55;;;;;;;21.21;56.10;101726.31;10452792;28;20065;-79
2022/07/01 12:47:38;;;;;;;0.00;0.00;;;;;;;22.25;61.87;101716.81;10453775;28;20102;-78
2022/07/01 12:52:42;;;;;;;0.63;0.20;;;;;;;21.78;53.42;101725.09;10453968;28;20072;-78
2022/07/01 12:57:55;;;;;;;0.08;0.08;;;;;;;21.20;53.31;101729.81;10451010;28;20036;-77
2022/07/01 13:03:01;;;;;;;0.00;0.00;;;;;;;20.66;56.57;101737.00;10418582;28;20133;-79
2022/07/01 13:08:03;;;;;;;0.00;0.00;;;;;;;21.75;55.44;101732.13;10436357;28;20036;-77
2022/07/01 13:13:05;;;;;;;0.17;0.15;;;;;;;20.88;54.47;101743.06;10453797;28;20044;-77
2022/07/01 13:18:08;;;;;;;0.10;0.10;;;;;;;21.21;49.02;101736.81;10436190;28;20037;-78
2022/07/01 13:23:10;;;;;;;0.22;0.17;;;;;;;21.17;51.61;101727.25;10458495;28;20083;-78
2022/07/01 13:28:12;;;;;;;0.10;0.10;;;;;;;21.59;50.75;101723.50;10432344;28;20451;-77
2022/07/01 13:33:14;;;;;;;0.77;0.22;;;;;;;21.82;58.98;101734.69;10454917;28;20099;-77
2022/07/01 13:38:17;;;;;;;2.72;0.10;;;;;;;21.23;55.79;101740.31;10446032;28;20091;-76
2022/07/01 13:43:19;;;;;;;0.55;0.40;;;;;;;21.01;55.18;101746.53;10448043;28;20041;-78
2022/07/01 13:48:20;;;;;;;0.45;0.30;;;;;;;21.93;51.48;101731.13;10449988;28;20045;-78
2022/07/01 13:53:22;;;;;;;0.10;0.10;;;;;;;22.52;56.52;101735.88;10427703;28;20052;-78
2022/07/01 13:58:26;;;;;;;0.00;0.00;;;;;;;22.48;55.07;101740.28;10450051;28;20037;-78
2022/07/01 14:03:28;;;;;;;0.15;0.15;;;;;;;21.77;49.90;101751.34;10451756;28;20034;-77
2022/07/01 14:08:30;;;;;;;0.10;0.10;;;;;;;21.64;49.85;101751.44;10430827;28;20096;-78
2022/07/01 14:13:34;;;;;;;0.00;0.00;;;;;;;22.10;52.82;101765.94;10443356;28;20095;-77
2022/07/01 14:18:36;;;;;;;0.20;0.10;;;;;;;21.94;51.09;101769.56;10451817;28;20053;-78
2022/07/01 14:23:38;;;;;;;0.10;0.10;;;;;;;21.22;51.35;101790.97;10430964;28;20041;-78
2022/07/01 14:28:39;;;;;;;0.00;0.00;;;;;;;21.16;52.44;101784.88;10434845;28;20566;-78
2022/07/01 14:33:42;;;;;;;0.10;0.10;;;;;;;21.58;54.16;101787.31;10450168;28;20132;-77
2022/07/01 14:38:43;;;;;;;1.02;0.20;;;;;;;21.27;57.58;101776.94;10440291;28;20075;-79
2022/07/01 14:43:47;;;;;;;0.20;0.20;;;;;;;21.67;55.88;101779.41;10449693;28;20094;-79
2022/07/01 14:48:48;;;;;;;0.88;0.32;;;;;;;21.76;59.46;101786.31;10450392;28;20041;-78
2022/07/01 14:54:17;;;;;;;0.57;0.20;;;;;;;21.69;56.96;101780.28;10453661;28;20388;-76
2022/07/01 14:59:25;;;;;;;0.28;0.13;;;;;;;21.92;59.33;101771.38;10457264;28;20145;-77
2022/07/01 15:04:27;;;;;;;0.13;0.13;;;;;;;21.99;54.94;101773.06;10457106;28;20053;-77
2022/07/01 15:09:31;;;;;;;0.05;0.05;;;;;;;22.14;56.03;101772.94;10449297;28;20560;-78
2022/07/01 15:14:34;;;;;;;0.38;0.20;;;;;;;21.06;57.71;101781.41;10445050;28;20056;-77
2022/07/01 15:19:39;;;;;;;0.00;0.00;;;;;;;21.60;56.69;101785.56;10452679;28;20127;-77
2022/07/01 15:24:41;;;;;;;0.20;0.15;;;;;;;21.36;53.98;101792.66;10441607;28;20045;-77
2022/07/01 15:29:43;;;;;;;0.00;0.00;;;;;;;21.50;57.37;101795.19;10456317;28;20077;-77
2022/07/01 15:34:46;;;;;;;0.00;0.00;;;;;;;21.06;57.53;101794.50;10443123;28;20055;-77
2022/07/01 15:39:47;;;;;;;0.10;0.03;;;;;;;21.12;57.40;101804.97;10458997;28;20032;-76
2022/07/01 15:45:00;;;;;;;0.00;0.00;;;;;;;21.23;56.57;101808.44;10440821;28;20060;-77
2022/07/01 15:50:02;;;;;;;0.00;0.00;;;;;;;21.04;57.60;101806.75;10450950;28;20488;-78
2022/07/01 15:55:04;;;;;;;0.00;0.00;;;;;;;21.30;62.58;101806.63;10437790;28;20107;-78
2022/07/01 16:00:13;;;;;;;0.22;0.10;;;;;;;21.16;58.98;101811.06;10449209;28;20037;-78
2022/07/01 16:05:37;;;;;;;0.65;0.10;;;;;;;21.05;57.85;101813.72;10456150;28;20076;-78
2022/07/01 16:10:49;;;;;;;0.30;0.10;;;;;;;21.17;56.72;101823.28;10458003;28;20476;-77
2022/07/01 16:15:51;;;;;;;0.00;0.00;;;;;;;20.88;57.21;101822.53;10453498;28;20499;-77
2022/07/01 16:20:58;;;;;;;0.00;0.00;;;;;;;20.82;58.63;101825.13;10451009;28;20041;-78
2022/07/01 16:26:01;;;;;;;0.00;0.00;;;;;;;20.79;58.64;101826.91;10451758;28;20037;-78
2022/07/01 16:31:03;;;;;;;0.05;0.00;;;;;;;20.70;61.83;101823.38;10448490;28;20040;-78
2022/07/01 16:36:12;;;;;;;0.35;0.20;;;;;;;20.48;63.43;101832.16;10455797;28;20048;-78
2022/07/01 16:41:28;;;;;;;0.22;0.10;;;;;;;20.42;61.87;101844.34;10451942;28;20483;-78
2022/07/01 16:46:34;;;;;;;0.08;0.08;;;;;;;20.34;66.47;101842.63;10452954;28;20084;-77
2022/07/01 16:51:41;;;;;;;0.00;0.00;;;;;;;20.27;67.64;101850.47;10451268;28;20087;-77
2022/07/01 16:56:43;;;;;;;0.30;0.10;;;;;;;20.22;68.52;101861.81;10431617;28;20052;-78
2022/07/01 17:01:47;;;;;;;0.20;0.10;;;;;;;20.26;68.76;101869.66;10441817;28;20523;-77
2022/07/01 17:06:50;;;;;;;0.70;0.65;;;;;;;20.00;66.35;101876.56;10437009;28;20053;-78
2022/07/01 17:11:52;;;;;;;0.63;0.20;;;;;;;19.85;65.93;101886.13;10455707;28;20508;-77
2022/07/01 17:16:55;;;;;;;0.10;0.03;;;;;;;19.44;64.58;101878.97;10450885;28;20301;-76
2022/07/01 17:22:03;;;;;;;0.15;0.13;;;;;;;19.46;65.75;101883.34;10445624;28;20048;-78
2022/07/01 17:27:28;;;;;;;0.20;0.20;;;;;;;19.53;66.40;101892.09;10445921;28;20481;-78
2022/07/01 17:32:36;;;;;;;0.10;0.10;;;;;;;19.54;66.79;101896.47;10439289;28;20044;-78
2022/07/01 17:37:40;;;;;;;0.10;0.10;;;;;;;19.73;68.36;101893.91;10432768;28;20061;-78
2022/07/01 17:42:43;;;;;;;0.00;0.00;;;;;;;19.70;70.50;101892.16;10444799;28;20565;-78
2022/07/01 17:47:45;;;;;;;0.10;0.10;;;;;;;19.53;72.01;101897.34;10450697;28;20103;-78
2022/07/01 17:52:48;;;;;;;0.30;0.30;;;;;;;19.36;70.89;101901.59;10441620;28;20459;-78
2022/07/01 17:57:50;;;;;;;1.55;0.35;;;;;;;19.08;68.94;101910.13;10438228;28;20044;-78
2022/07/01 18:02:52;;;;;;;0.00;0.00;;;;;;;19.63;73.62;101896.47;10449427;28;20075;-79
2022/07/01 18:07:56;;;;;;;0.15;0.15;;;;;;;19.16;67.67;101910.19;10454485;28;20492;-77
2022/07/01 18:13:01;;;;;;;0.45;0.15;;;;;;;19.27;69.65;101907.66;10445291;28;20090;-77
2022/07/01 18:18:04;;;;;;;0.22;0.03;;;;;;;19.25;68.58;101907.63;10437673;28;20041;-77
2022/07/01 18:23:16;;;;;;;0.10;0.10;;;;;;;19.19;71.10;101915.41;10441147;28;20051;-77
2022/07/01 18:28:27;;;;;;;0.00;0.00;;;;;;;19.03;71.71;101917.94;10439567;28;20525;-78
2022/07/01 18:33:31;;;;;;;0.10;0.10;;;;;;;18.93;74.99;101920.47;10444830;28;20041;-78
2022/07/01 18:38:33;;;;;;;0.10;0.10;;;;;;;19.06;75.99;101921.44;10421269;28;20136;-77
2022/07/01 18:43:35;;;;;;;0.10;0.10;;;;;;;18.73;74.49;101917.69;10441795;28;20045;-78
2022/07/01 18:48:37;;;;;;;0.00;0.00;;;;;;;18.59;69.58;101921.03;10435683;28;20122;-79
2022/07/01 18:53:41;;;;;;;0.00;0.00;;;;;;;18.49;70.83;101934.88;10453842;28;20045;-77
2022/07/01 18:58:43;;;;;;;0.00;0.00;;;;;;;18.31;71.56;101936.44;10443895;28;20045;-78
2022/07/01 19:03:45;;;;;;;0.10;0.10;;;;;;;18.25;74.70;101931.16;10431372;28;20098;-78
2022/07/01 19:08:47;;;;;;;0.05;0.05;;;;;;;18.13;75.74;101941.47;10438067;28;20492;-77
2022/07/01 19:13:49;;;;;;;0.32;0.22;;;;;;;17.95;78.04;101943.00;10437291;28;20053;-78
2022/07/01 19:18:50;;;;;;;1.77;0.57;;;;;;;17.95;80.28;101953.44;10453328;28;20067;-77
2022/07/01 19:23:53;;;;;;;0.00;0.00;;;;;;;17.89;81.89;101963.75;10443574;28;20103;-78
2022/07/01 19:28:54;;;;;;;0.00;0.00;;;;;;;17.63;81.59;101966.88;10450569;28;20072;-78
2022/07/01 19:33:56;;;;;;;0.00;0.00;;;;;;;17.58;82.84;101965.94;10462434;28;20037;-78
2022/07/01 19:38:57;;;;;;;0.00;0.00;;;;;;;17.22;84.24;101970.63;10461079;28;20087;-77
2022/07/01 19:44:00;;;;;;;0.00;0.00;;;;;;;17.16;86.20;101980.09;10451003;28;20067;-78
2022/07/01 19:49:04;;;;;;;0.00;0.00;;;;;;;17.04;91.30;101989.44;10443115;28;20044;-78
2022/07/01 19:54:06;;;;;;;0.00;0.00;;;;;;;16.68;94.25;101998.34;10466771;28;20045;-78
2022/07/01 19:59:08;;;;;;;0.00;0.00;;;;;;;16.67;92.07;102001.78;10446177;28;20090;-77
2022/07/01 20:04:09;;;;;;;0.00;0.00;;;;;;;16.52;95.68;102011.91;10473512;28;20064;-77
2022/07/01 20:09:11;;;;;;;0.13;0.05;;;;;;;16.57;94.45;102012.91;10471848;28;20055;-77
2022/07/01 20:14:14;;;;;;;0.03;0.03;;;;;;;16.63;97.99;102016.47;10476301;28;20045;-77
2022/07/01 20:19:15;;;;;;;0.20;0.10;;;;;;;16.26;99.58;102023.56;10471258;28;20037;-77
2022/07/01 20:24:17;;;;;;;0.00;0.00;;;;;;;16.10;100.00;102034.47;10467920;28;20136;-78
2022/07/01 20:29:19;;;;;;;0.10;0.00;;;;;;;15.73;100.00;102052.72;10445270;28;20071;-77
2022/07/01 20:34:21;;;;;;;0.43;0.17;;;;;;;16.18;99.61;102049.41;10467198;28;20103;-77
2022/07/01 20:39:22;;;;;;;0.00;0.00;;;;;;;15.96;100.00;102062.81;10460051;28;20045;-77
2022/07/01 20:44:24;;;;;;;0.00;0.00;;;;;;;15.77;100.00;102057.13;10470897;28;20040;-77
2022/07/01 20:49:25;;;;;;;0.00;0.00;;;;;;;15.60;100.00;102063.69;10471399;28;20040;-77
2022/07/01 20:54:27;;;;;;;0.00;0.00;;;;;;;15.51;100.00;102070.41;10458579;28;20096;-77
2022/07/01 20:59:29;;;;;;;0.10;0.10;;;;;;;15.53;100.00;102058.31;10453402;28;20041;-77
2022/07/01 21:04:36;;;;;;;0.22;0.17;;;;;;;15.41;100.00;102076.22;10454273;28;20040;-77
2022/07/01 21:09:38;;;;;;;0.10;0.10;;;;;;;15.34;100.00;102071.69;10462612;28;20088;-77
2022/07/01 21:14:39;;;;;;;0.65;0.20;;;;;;;15.21;100.00;102080.91;10457150;28;20091;-77
2022/07/01 21:19:42;;;;;;;0.30;0.08;;;;;;;15.04;100.00;102089.13;10460445;28;20033;-77
2022/07/01 21:24:43;;;;;;;0.00;0.00;;;;;;;14.98;100.00;102111.44;10466920;28;20045;-77
2022/07/01 21:29:45;;;;;;;0.10;0.10;;;;;;;14.83;100.00;102110.19;10449367;28;20068;-77
2022/07/01 21:34:49;;;;;;;0.10;0.10;;;;;;;14.77;100.00;102120.41;10467625;28;20111;-77
2022/07/01 21:39:51;;;;;;;0.20;0.10;;;;;;;14.66;100.00;102121.81;10456313;28;20029;-78
2022/07/01 21:44:53;;;;;;;0.00;0.00;;;;;;;14.34;100.00;102121.69;10436837;28;20114;-77
2022/07/01 21:49:57;;;;;;;0.52;0.25;;;;;;;14.42;100.00;102125.41;10449241;28;20048;-78
2022/07/01 21:55:08;;;;;;;0.20;0.20;;;;;;;14.31;100.00;102125.09;10418240;28;20448;-77
2022/07/01 22:00:20;;;;;;;0.08;0.08;;;;;;;14.19;100.00;102120.41;10431078;28;20485;-77
2022/07/01 22:06:50;;;;;;;0.28;0.20;;;;;;;14.24;100.00;102129.22;10444829;28;20484;-77
2022/07/01 22:10:46;;;;;;;0.05;0.00;;;;;;;14.08;100.00;102124.38;10443671;28;20108;-78
2022/07/01 22:15:50;;;;;;;0.00;0.00;;;;;;;14.05;100.00;102124.28;10448094;28;20053;-78
2022/07/01 22:20:51;;;;;;;0.08;0.08;;;;;;;14.00;100.00;102120.69;10446757;28;20491;-76
2022/07/01 22:25:53;;;;;;;0.10;0.10;;;;;;;13.60;100.00;102131.50;10446850;28;20095;-75
2022/07/01 22:30:56;;;;;;;0.40;0.40;;;;;;;13.63;100.00;102141.97;10450176;28;20037;-76
2022/07/01 22:35:58;;;;;;;0.20;0.20;;;;;;;13.75;100.00;102140.59;10449527;28;20056;-75
2022/07/01 22:41:01;;;;;;;0.10;0.10;;;;;;;13.55;100.00;102140.84;10417448;28;20448;-75
2022/07/01 22:46:12;;;;;;;0.10;0.10;;;;;;;13.28;100.00;102141.66;10442904;28;20045;-76
2022/07/01 22:51:20;;;;;;;0.15;0.10;;;;;;;13.57;100.00;102136.59;10447715;28;20037;-76
2022/07/01 22:56:22;;;;;;;0.15;0.15;;;;;;;13.33;100.00;102137.50;10447751;28;20462;-77
2022/07/01 23:01:29;;;;;;;0.30;0.10;;;;;;;13.16;100.00;102151.53;10428055;28;20044;-76
2022/07/01 23:06:53;;;;;;;0.08;0.00;;;;;;;13.16;100.00;102152.44;10438863;28;20041;-77
2022/07/01 23:12:01;;;;;;;0.00;0.00;;;;;;;12.91;100.00;102153.28;10449772;28;20065;-77
2022/07/01 23:17:10;;;;;;;0.20;0.20;;;;;;;13.13;100.00;102147.16;10455605;28;20095;-77
2022/07/01 23:22:13;;;;;;;0.37;0.10;;;;;;;13.14;100.00;102142.88;10441186;28;20041;-76
2022/07/01 23:27:19;;;;;;;1.27;0.20;;;;;;;12.91;100.00;102139.44;10458151;28;20546;-75